Aérodrome :
LOGIN :

S'inscrire | Disclaimer

   EN    FR    IT 

 










Légende :    VFR   VFR Marginal   IFR   IFR Intensif   IFR Très Intensif
Visi : 
Plafond : 
>= 8 km
>= 3000ft
5 à 8 km
1000 à 3000 ft
1500m à 5 km
500 à 1000 ft
800 à 1500m
200 à 500 ft
< 800m
< 200 ft
Symboles :   Orages  Brouillard  Fortes neiges  Fortes précipitations  Vent > 20 kt
SIGMETs :   Divers  Orages  Givrage  Turbulence  Onde Orograph.  Cendres Volcan.






- Altitude de l'aérodrome : 1299 ft


EDTY - Adolf Würth

DERNIER METAR :
  • 122220Z AUTO 14003KT 110V170 9999 // NCD M00/M02 Q0993

METARs EXPIRÉS :
  • 122150Z AUTO 10005KT 070V130 9999 // NCD M01/M02 Q0994
  • 122120Z AUTO 09006KT 9999 // NCD M02/M03 Q0995
  • 122050Z AUTO 11004KT 9999 // NCD M01/M02 Q0996
  • 122020Z AUTO 13005KT 100V160 9999 // NCD 00/M01 Q0996

TAF TAF EDTY
Valide du 12 à 18h jusqu'au 13 à 03h UTC


121700Z 1218/1303 16004KT 9999 SCT040
BECMG 1300/1302 16010KT



MET'MAP, la Météo Aéronautique d'un coup d'oeil ! - Copyright ORBIFLY Décembre 2007 - Disclaimer

ORBIFLY MET'MAP TEAM :

Programmation & Développement : Alexandra Zaïnal
Sur une idée originale de : Baudouin d'Aumeries
Assistance à la programmation : Marc-Olivier Méhu
Soutien technique & logistique : Manuel Goepfert

Contact : metmap@orbifly.com




SOURCES & CREDITS :

   NOAA